PRIVATE WETTERSTATION BILLIGHEIM-ALLFELD                       ZURCK
Wetterdaten: Mittwoch, 19.07.2017
Datum Zeit Temp. A. Temp. A. min Temp. A. max Feuchte A. Luftdruck Regen Wind Richtung Richtung Sonnenschein ET Solar Taupunkt Windchill Windben Empfang
19.07.2017 00:00 22,2 C 22,2 C 22,4 C 70 % 1012,4 hPa 0,0 l/m 0,0 km/h (0 Bft) N 360 0 min 0,025 mm 0 W/m 16,5 C 22,2 C 6,4 km/h (2 Bft) 100 %
19.07.2017 00:10 21,9 C 21,9 C 22,2 C 71 % 1012,4 hPa 0,0 l/m 0,0 km/h (0 Bft) N 360 0 min 0,000 mm 0 W/m 16,4 C 21,9 C 3,2 km/h (1 Bft) 100 %
19.07.2017 00:20 21,6 C 21,6 C 21,9 C 72 % 1012,2 hPa 0,0 l/m 0,0 km/h (0 Bft) N 360 0 min 0,000 mm 0 W/m 16,3 C 21,6 C 3,2 km/h (1 Bft) 100 %
19.07.2017 00:30 21,2 C 21,2 C 21,6 C 73 % 1012,1 hPa 0,0 l/m 0,0 km/h (0 Bft) N 360 0 min 0,000 mm 0 W/m 16,2 C 21,2 C 1,6 km/h (1 Bft) 100 %
19.07.2017 00:40 20,9 C 20,9 C 21,2 C 74 % 1012,1 hPa 0,0 l/m 0,0 km/h (0 Bft) NO 45 0 min 0,000 mm 0 W/m 16,1 C 20,9 C 1,6 km/h (1 Bft) 100 %
19.07.2017 00:50 20,7 C 20,7 C 20,9 C 75 % 1012,1 hPa 0,0 l/m 0,0 km/h (0 Bft) N-NO 22 0 min 0,000 mm 0 W/m 16,1 C 20,7 C 1,6 km/h (1 Bft) 100 %
19.07.2017 01:00 20,4 C 20,4 C 20,7 C 76 % 1012,1 hPa 0,0 l/m 0,0 km/h (0 Bft) N 360 0 min 0,025 mm 0 W/m 16,0 C 20,4 C 3,2 km/h (1 Bft) 100 %
19.07.2017 01:10 20,2 C 20,2 C 20,4 C 76 % 1012,0 hPa 0,0 l/m 3,2 km/h (1 Bft) NW 315 0 min 0,000 mm 0 W/m 15,8 C 20,2 C 6,4 km/h (2 Bft) 100 %
19.07.2017 01:20 20,1 C 20,1 C 20,2 C 78 % 1012,1 hPa 0,0 l/m 0,0 km/h (0 Bft) NW 315 0 min 0,000 mm 0 W/m 16,1 C 20,1 C 3,2 km/h (1 Bft) 100 %
19.07.2017 01:30 19,9 C 19,9 C 20,1 C 78 % 1012,1 hPa 0,0 l/m 0,0 km/h (0 Bft) NW 315 0 min 0,000 mm 0 W/m 15,9 C 19,9 C 1,6 km/h (1 Bft) 100 %
19.07.2017 01:40 19,8 C 19,8 C 19,9 C 78 % 1011,9 hPa 0,0 l/m 0,0 km/h (0 Bft) NW 315 0 min 0,000 mm 0 W/m 15,8 C 19,8 C 1,6 km/h (1 Bft) 100 %
19.07.2017 01:50 19,6 C 19,6 C 19,8 C 79 % 1011,9 hPa 0,0 l/m 0,0 km/h (0 Bft) NW 315 0 min 0,000 mm 0 W/m 15,9 C 19,6 C 4,8 km/h (1 Bft) 100 %
19.07.2017 02:00 19,3 C 19,3 C 19,6 C 79 % 1011,8 hPa 0,0 l/m 0,0 km/h (0 Bft) NW 315 0 min 0,025 mm 0 W/m 15,6 C 19,3 C 1,6 km/h (1 Bft) 100 %
19.07.2017 02:10 19,2 C 19,2 C 19,3 C 80 % 1011,6 hPa 0,0 l/m 0,0 km/h (0 Bft) N 0 0 min 0,000 mm 0 W/m 15,7 C 19,2 C 0,0 km/h (0 Bft) 100 %
19.07.2017 02:20 19,0 C 19,0 C 19,2 C 81 % 1011,7 hPa 0,0 l/m 0,0 km/h (0 Bft) N 0 0 min 0,000 mm 0 W/m 15,7 C 19,0 C 0,0 km/h (0 Bft) 100 %
19.07.2017 02:30 18,8 C 18,8 C 19,0 C 81 % 1011,8 hPa 0,0 l/m 0,0 km/h (0 Bft) NW 315 0 min 0,000 mm 0 W/m 15,5 C 18,8 C 3,2 km/h (1 Bft) 99 %
19.07.2017 02:40 18,7 C 18,7 C 18,9 C 82 % 1011,8 hPa 0,0 l/m 0,0 km/h (0 Bft) N 0 0 min 0,000 mm 0 W/m 15,6 C 18,7 C 0,0 km/h (0 Bft) 100 %
19.07.2017 02:50 18,6 C 18,6 C 18,7 C 82 % 1011,7 hPa 0,0 l/m 0,0 km/h (0 Bft) N 0 0 min 0,000 mm 0 W/m 15,5 C 18,6 C 0,0 km/h (0 Bft) 100 %
19.07.2017 03:00 18,5 C 18,5 C 18,6 C 82 % 1011,6 hPa 0,0 l/m 0,0 km/h (0 Bft) NW 315 0 min 0,025 mm 0 W/m 15,4 C 18,5 C 1,6 km/h (1 Bft) 100 %
19.07.2017 03:10 18,4 C 18,4 C 18,5 C 83 % 1011,7 hPa 0,0 l/m 1,6 km/h (1 Bft) NW 315 0 min 0,000 mm 0 W/m 15,5 C 18,4 C 4,8 km/h (1 Bft) 100 %
19.07.2017 03:20 18,3 C 18,3 C 18,4 C 83 % 1011,8 hPa 0,0 l/m 1,6 km/h (1 Bft) NW 315 0 min 0,000 mm 0 W/m 15,4 C 18,3 C 6,4 km/h (2 Bft) 100 %
19.07.2017 03:30 18,1 C 18,1 C 18,3 C 83 % 1011,8 hPa 0,0 l/m 0,0 km/h (0 Bft) N 0 0 min 0,000 mm 0 W/m 15,2 C 18,1 C 0,0 km/h (0 Bft) 100 %
19.07.2017 03:40 18,0 C 18,0 C 18,1 C 84 % 1011,6 hPa 0,0 l/m 0,0 km/h (0 Bft) N 0 0 min 0,000 mm 0 W/m 15,3 C 18,0 C 0,0 km/h (0 Bft) 100 %
19.07.2017 03:50 17,9 C 17,9 C 18,0 C 84 % 1011,6 hPa 0,0 l/m 0,0 km/h (0 Bft) NW 315 0 min 0,000 mm 0 W/m 15,2 C 17,9 C 4,8 km/h (1 Bft) 100 %
19.07.2017 04:00 17,8 C 17,8 C 17,9 C 84 % 1011,7 hPa 0,0 l/m 0,0 km/h (0 Bft) N 0 0 min 0,025 mm 0 W/m 15,1 C 17,8 C 0,0 km/h (0 Bft) 100 %
19.07.2017 04:10 17,7 C 17,7 C 17,8 C 85 % 1011,6 hPa 0,0 l/m 0,0 km/h (0 Bft) N 0 0 min 0,000 mm 0 W/m 15,1 C 17,7 C 0,0 km/h (0 Bft) 100 %
19.07.2017 04:20 17,6 C 17,6 C 17,7 C 85 % 1011,5 hPa 0,0 l/m 0,0 km/h (0 Bft) N 0 0 min 0,000 mm 0 W/m 15,0 C 17,6 C 0,0 km/h (0 Bft) 100 %
19.07.2017 04:30 17,4 C 17,4 C 17,6 C 86 % 1011,7 hPa 0,0 l/m 1,6 km/h (1 Bft) NW 315 0 min 0,000 mm 0 W/m 15,0 C 17,4 C 4,8 km/h (1 Bft) 100 %
19.07.2017 04:40 17,3 C 17,3 C 17,4 C 86 % 1011,7 hPa 0,0 l/m 0,0 km/h (0 Bft) N 0 0 min 0,000 mm 0 W/m 14,9 C 17,3 C 0,0 km/h (0 Bft) 100 %
19.07.2017 04:50 17,2 C 17,2 C 17,3 C 87 % 1011,8 hPa 0,0 l/m 0,0 km/h (0 Bft) N 0 0 min 0,000 mm 0 W/m 15,0 C 17,2 C 0,0 km/h (0 Bft) 100 %
19.07.2017 05:00 17,2 C 17,2 C 17,3 C 87 % 1011,8 hPa 0,0 l/m 0,0 km/h (0 Bft) N 0 0 min 0,000 mm 0 W/m 15,0 C 17,2 C 0,0 km/h (0 Bft) 100 %
19.07.2017 05:10 17,1 C 17,1 C 17,2 C 87 % 1011,8 hPa 0,0 l/m 0,0 km/h (0 Bft) NW 315 0 min 0,000 mm 0 W/m 14,9 C 17,1 C 1,6 km/h (1 Bft) 99 %
19.07.2017 05:20 17,1 C 17,1 C 17,1 C 87 % 1011,8 hPa 0,0 l/m 0,0 km/h (0 Bft) N 0 0 min 0,000 mm 0 W/m 14,9 C 17,1 C 0,0 km/h (0 Bft) 100 %
19.07.2017 05:30 17,0 C 17,0 C 17,1 C 87 % 1011,7 hPa 0,0 l/m 1,6 km/h (1 Bft) NW 315 0 min 0,000 mm 0 W/m 14,8 C 17,0 C 4,8 km/h (1 Bft) 100 %
19.07.2017 05:40 16,9 C 16,8 C 17,0 C 87 % 1011,8 hPa 0,0 l/m 0,0 km/h (0 Bft) N 0 0 min 0,000 mm 0 W/m 14,7 C 16,9 C 0,0 km/h (0 Bft) 100 %
19.07.2017 05:50 16,7 C 16,7 C 16,8 C 88 % 1011,8 hPa 0,0 l/m 0,0 km/h (0 Bft) N 0 0 min 0,000 mm 7 W/m 14,7 C 16,7 C 0,0 km/h (0 Bft) 100 %
19.07.2017 06:00 16,6 C 16,6 C 16,7 C 88 % 1011,9 hPa 0,0 l/m 0,0 km/h (0 Bft) N 0 0 min 0,000 mm 11 W/m 14,6 C 16,6 C 0,0 km/h (0 Bft) 100 %
19.07.2017 06:10 16,5 C 16,5 C 16,6 C 88 % 1011,9 hPa 0,0 l/m 0,0 km/h (0 Bft) N 0 0 min 0,000 mm 16 W/m 14,5 C 16,5 C 0,0 km/h (0 Bft) 100 %
19.07.2017 06:20 16,4 C 16,4 C 16,5 C 88 % 1011,9 hPa 0,0 l/m 0,0 km/h (0 Bft) N 0 0 min 0,000 mm 21 W/m 14,4 C 16,4 C 0,0 km/h (0 Bft) 100 %
19.07.2017 06:30 16,4 C 16,4 C 16,4 C 89 % 1011,9 hPa 0,0 l/m 0,0 km/h (0 Bft) N 0 0 min 0,000 mm 23 W/m 14,6 C 16,4 C 0,0 km/h (0 Bft) 100 %
19.07.2017 06:40 16,6 C 16,4 C 16,6 C 89 % 1011,9 hPa 0,0 l/m 0,0 km/h (0 Bft) N 0 0 min 0,000 mm 30 W/m 14,8 C 16,6 C 0,0 km/h (0 Bft) 100 %
19.07.2017 06:50 16,6 C 16,6 C 16,6 C 89 % 1012,0 hPa 0,0 l/m 0,0 km/h (0 Bft) N 0 0 min 0,000 mm 46 W/m 14,8 C 16,6 C 0,0 km/h (0 Bft) 100 %
19.07.2017 07:00 16,8 C 16,6 C 16,8 C 89 % 1012,1 hPa 0,0 l/m 0,0 km/h (0 Bft) N 0 0 min 0,025 mm 46 W/m 15,0 C 16,8 C 0,0 km/h (0 Bft) 100 %
19.07.2017 07:10 16,9 C 16,8 C 16,9 C 89 % 1012,2 hPa 0,0 l/m 0,0 km/h (0 Bft) NW 315 0 min 0,000 mm 44 W/m 15,1 C 16,9 C 1,6 km/h (1 Bft) 100 %
19.07.2017 07:20 17,0 C 16,9 C 17,0 C 89 % 1012,2 hPa 0,0 l/m 0,0 km/h (0 Bft) NW 315 0 min 0,000 mm 63 W/m 15,2 C 17,0 C 3,2 km/h (1 Bft) 100 %
19.07.2017 07:30 17,3 C 17,0 C 17,3 C 89 % 1012,2 hPa 0,0 l/m 0,0 km/h (0 Bft) NW 315 0 min 0,000 mm 65 W/m 15,5 C 17,3 C 3,2 km/h (1 Bft) 100 %
19.07.2017 07:40 17,5 C 17,3 C 17,5 C 89 % 1012,2 hPa 0,0 l/m 0,0 km/h (0 Bft) N 0 0 min 0,000 mm 53 W/m 15,7 C 17,5 C 0,0 km/h (0 Bft) 100 %
19.07.2017 07:50 17,7 C 17,5 C 17,7 C 89 % 1012,2 hPa 0,0 l/m 0,0 km/h (0 Bft) NW 315 0 min 0,000 mm 62 W/m 15,9 C 17,7 C 1,6 km/h (1 Bft) 100 %
19.07.2017 08:00 18,0 C 17,7 C 18,0 C 89 % 1012,2 hPa 0,0 l/m 0,0 km/h (0 Bft) N 0 0 min 0,025 mm 67 W/m 16,2 C 18,0 C 0,0 km/h (0 Bft) 100 %
19.07.2017 08:10 18,3 C 18,0 C 18,3 C 88 % 1012,1 hPa 0,0 l/m 0,0 km/h (0 Bft) NW 315 0 min 0,000 mm 70 W/m 16,3 C 18,3 C 1,6 km/h (1 Bft) 100 %
19.07.2017 08:20 18,7 C 18,3 C 18,7 C 88 % 1012,1 hPa 0,0 l/m 0,0 km/h (0 Bft) N 0 10 min 0,000 mm 294 W/m 16,7 C 18,7 C 0,0 km/h (0 Bft) 100 %
19.07.2017 08:30 19,3 C 18,7 C 19,3 C 88 % 1012,0 hPa 0,0 l/m 0,0 km/h (0 Bft) N 0 10 min 0,000 mm 352 W/m 17,3 C 19,3 C 0,0 km/h (0 Bft) 100 %
19.07.2017 08:40 20,2 C 19,3 C 20,2 C 84 % 1011,9 hPa 0,0 l/m 0,0 km/h (0 Bft) N 0 10 min 0,000 mm 380 W/m 17,4 C 20,2 C 0,0 km/h (0 Bft) 100 %
19.07.2017 08:50 21,3 C 20,2 C 21,3 C 80 % 1011,9 hPa 0,0 l/m 0,0 km/h (0 Bft) N 0 10 min 0,000 mm 415 W/m 17,7 C 21,3 C 0,0 km/h (0 Bft) 100 %
19.07.2017 09:00 22,7 C 21,3 C 22,7 C 74 % 1011,9 hPa 0,0 l/m 0,0 km/h (0 Bft) N 0 10 min 0,152 mm 446 W/m 17,8 C 22,7 C 0,0 km/h (0 Bft) 100 %
19.07.2017 09:10 23,8 C 22,7 C 23,8 C 66 % 1011,9 hPa 0,0 l/m 0,0 km/h (0 Bft) S-SW 202 10 min 0,000 mm 469 W/m 17,1 C 23,8 C 1,6 km/h (1 Bft) 100 %
19.07.2017 09:20 24,5 C 23,8 C 24,5 C 64 % 1011,8 hPa 0,0 l/m 0,0 km/h (0 Bft) S-SW 202 10 min 0,000 mm 503 W/m 17,2 C 24,5 C 1,6 km/h (1 Bft) 100 %
19.07.2017 09:30 25,1 C 24,5 C 25,1 C 65 % 1011,8 hPa 0,0 l/m 0,0 km/h (0 Bft) S 180 10 min 0,000 mm 540 W/m 18,0 C 25,1 C 1,6 km/h (1 Bft) 100 %
19.07.2017 09:40 26,0 C 25,1 C 26,0 C 59 % 1011,9 hPa 0,0 l/m 1,6 km/h (1 Bft) S-SW 202 10 min 0,000 mm 564 W/m 17,4 C 26,0 C 11,3 km/h (2 Bft) 100 %
19.07.2017 09:50 26,4 C 25,1 C 26,4 C 59 % 1011,9 hPa 0,0 l/m 1,8 km/h (1 Bft) S 190 10 min 0,000 mm 585 W/m 17,7 C 26,4 C 11,3 km/h (2 Bft) 100 %
19.07.2017 10:00 26,8 C 26,4 C 26,8 C 60 % 1012,0 hPa 0,0 l/m 0,0 km/h (0 Bft) S-SW 194 10 min 0,308 mm 606 W/m 18,4 C 26,8 C 1,6 km/h (1 Bft) 100 %
19.07.2017 10:10 27,3 C 26,8 C 27,3 C 58 % 1011,9 hPa 0,0 l/m 0,0 km/h (0 Bft) S-SW 205 10 min 0,000 mm 629 W/m 18,3 C 27,3 C 1,6 km/h (1 Bft) 100 %
19.07.2017 10:20 27,4 C 27,3 C 27,4 C 58 % 1011,8 hPa 0,0 l/m 0,0 km/h (0 Bft) S 169 10 min 0,000 mm 652 W/m 18,4 C 27,4 C 1,6 km/h (1 Bft) 100 %
19.07.2017 10:30 27,4 C 27,3 C 27,4 C 56 % 1011,8 hPa 0,0 l/m 0,3 km/h (0 Bft) S-SW 193 10 min 0,000 mm 677 W/m 17,8 C 27,4 C 6,4 km/h (2 Bft) 100 %
19.07.2017 10:40 27,9 C 27,4 C 27,9 C 57 % 1011,7 hPa 0,0 l/m 1,5 km/h (1 Bft) S 182 10 min 0,000 mm 696 W/m 18,6 C 27,9 C 11,3 km/h (2 Bft) 100 %
19.07.2017 10:50 28,2 C 27,9 C 28,2 C 53 % 1011,6 hPa 0,0 l/m 1,2 km/h (1 Bft) S 189 10 min 0,000 mm 715 W/m 17,7 C 28,2 C 11,3 km/h (2 Bft) 100 %
19.07.2017 11:00 28,7 C 28,2 C 28,7 C 53 % 1011,4 hPa 0,0 l/m 0,0 km/h (0 Bft) S 183 10 min 0,432 mm 737 W/m 18,2 C 28,7 C 1,6 km/h (1 Bft) 100 %
19.07.2017 11:10 29,4 C 28,7 C 29,4 C 54 % 1011,2 hPa 0,0 l/m 0,0 km/h (0 Bft) S-SW 211 10 min 0,000 mm 752 W/m 19,1 C 29,4 C 1,6 km/h (1 Bft) 99 %
19.07.2017 11:20 29,4 C 29,3 C 29,4 C 54 % 1011,1 hPa 0,0 l/m 0,0 km/h (0 Bft) W-SW 247 10 min 0,000 mm 770 W/m 19,1 C 29,4 C 1,6 km/h (1 Bft) 100 %
19.07.2017 11:30 29,7 C 29,4 C 29,7 C 51 % 1011,1 hPa 0,0 l/m 0,0 km/h (0 Bft) SW 217 10 min 0,000 mm 786 W/m 18,5 C 29,7 C 0,0 km/h (0 Bft) 91 %
19.07.2017 11:40 29,6 C 29,6 C 29,7 C 52 % 1011,1 hPa 0,0 l/m 2,5 km/h (1 Bft) S 178 10 min 0,000 mm 800 W/m 18,7 C 29,6 C 14,5 km/h (3 Bft) 100 %
19.07.2017 11:50 29,5 C 29,5 C 29,6 C 51 % 1011,0 hPa 0,0 l/m 0,9 km/h (0 Bft) S-SO 150 10 min 0,000 mm 810 W/m 18,3 C 29,5 C 11,3 km/h (2 Bft) 100 %
19.07.2017 12:00 29,8 C 29,4 C 29,8 C 51 % 1011,0 hPa 0,0 l/m 1,5 km/h (1 Bft) S-SW 200 10 min 0,533 mm 819 W/m 18,5 C 29,8 C 9,7 km/h (2 Bft) 99 %
19.07.2017 12:10 30,3 C 29,8 C 30,3 C 49 % 1011,0 hPa 0,0 l/m 1,6 km/h (1 Bft) S-SO 167 10 min 0,000 mm 821 W/m 18,4 C 30,3 C 11,3 km/h (2 Bft) 100 %
19.07.2017 12:20 30,6 C 30,2 C 30,6 C 49 % 1010,9 hPa 0,0 l/m 0,3 km/h (0 Bft) SW 214 10 min 0,000 mm 831 W/m 18,6 C 30,6 C 9,7 km/h (2 Bft) 100 %
19.07.2017 12:30 31,1 C 30,6 C 31,1 C 49 % 1010,7 hPa 0,0 l/m 1,7 km/h (1 Bft) W-SW 244 10 min 0,000 mm 842 W/m 19,1 C 31,1 C 12,9 km/h (3 Bft) 100 %
19.07.2017 12:40 31,2 C 31,1 C 31,3 C 47 % 1010,6 hPa 0,0 l/m 0,6 km/h (0 Bft) O-SO 105 10 min 0,000 mm 847 W/m 18,5 C 31,2 C 8,0 km/h (2 Bft) 100 %
19.07.2017 12:50 30,9 C 30,9 C 31,2 C 47 % 1010,5 hPa 0,0 l/m 1,6 km/h (1 Bft) SO 125 10 min 0,000 mm 856 W/m 18,2 C 30,9 C 11,3 km/h (2 Bft) 100 %
19.07.2017 13:00 30,8 C 30,8 C 30,9 C 45 % 1010,4 hPa 0,0 l/m 1,0 km/h (0 Bft) O 101 10 min 0,584 mm 860 W/m 17,5 C 30,8 C 11,3 km/h (2 Bft) 100 %
19.07.2017 13:10 31,0 C 30,8 C 31,0 C 48 % 1010,3 hPa 0,0 l/m 0,8 km/h (0 Bft) S-SO 163 10 min 0,000 mm 861 W/m 18,7 C 31,0 C 9,7 km/h (2 Bft) 100 %
19.07.2017 13:20 31,1 C 31,0 C 31,2 C 45 % 1010,2 hPa 0,0 l/m 1,0 km/h (0 Bft) S-SO 148 10 min 0,000 mm 861 W/m 17,7 C 31,1 C 9,7 km/h (2 Bft) 100 %
19.07.2017 13:30 31,3 C 31,1 C 31,3 C 46 % 1010,1 hPa 0,0 l/m 1,0 km/h (0 Bft) S-SO 163 10 min 0,000 mm 865 W/m 18,3 C 31,3 C 9,7 km/h (2 Bft) 99 %
19.07.2017 13:40 31,6 C 31,3 C 31,6 C 43 % 1010,0 hPa 0,0 l/m 1,1 km/h (1 Bft) SO 139 10 min 0,000 mm 860 W/m 17,5 C 31,6 C 11,3 km/h (2 Bft) 100 %
19.07.2017 13:50 31,8 C 31,6 C 31,8 C 46 % 1010,0 hPa 0,0 l/m 0,7 km/h (0 Bft) SW 230 10 min 0,000 mm 861 W/m 18,7 C 31,8 C 8,0 km/h (2 Bft) 99 %
19.07.2017 14:00 32,2 C 31,8 C 32,2 C 43 % 1009,7 hPa 0,0 l/m 1,5 km/h (1 Bft) S 180 10 min 0,610 mm 867 W/m 18,0 C 32,2 C 14,5 km/h (3 Bft) 98 %
19.07.2017 14:10 31,9 C 31,9 C 32,3 C 42 % 1009,5 hPa 0,0 l/m 3,1 km/h (1 Bft) O-SO 113 10 min 0,000 mm 860 W/m 17,4 C 31,9 C 17,7 km/h (3 Bft) 97 %
19.07.2017 14:20 32,1 C 31,9 C 32,1 C 45 % 1009,4 hPa 0,0 l/m 3,1 km/h (1 Bft) S-SW 197 10 min 0,000 mm 847 W/m 18,6 C 32,1 C 17,7 km/h (3 Bft) 98 %
19.07.2017 14:30 32,2 C 32,1 C 32,2 C 46 % 1009,2 hPa 0,0 l/m 2,1 km/h (1 Bft) S 188 10 min 0,000 mm 844 W/m 19,1 C 32,2 C 16,1 km/h (3 Bft) 97 %
19.07.2017 14:40 32,8 C 32,2 C 32,8 C 45 % 1009,1 hPa 0,0 l/m 2,4 km/h (1 Bft) SO 144 10 min 0,000 mm 831 W/m 19,3 C 32,8 C 22,5 km/h (4 Bft) 97 %
19.07.2017 14:50 32,8 C 32,7 C 32,8 C 44 % 1009,0 hPa 0,0 l/m 1,6 km/h (1 Bft) SO 134 10 min 0,000 mm 819 W/m 18,9 C 32,8 C 14,5 km/h (3 Bft) 98 %
19.07.2017 15:00 32,7 C 32,7 C 32,8 C 42 % 1009,0 hPa 0,0 l/m 1,9 km/h (1 Bft) O 89 10 min 0,584 mm 645 W/m 18,1 C 32,7 C 12,9 km/h (3 Bft) 97 %
19.07.2017 15:10 32,4 C 32,4 C 32,7 C 44 % 1008,9 hPa 0,0 l/m 2,8 km/h (1 Bft) S 182 10 min 0,000 mm 775 W/m 18,5 C 32,4 C 12,9 km/h (3 Bft) 98 %
19.07.2017 15:20 32,6 C 32,4 C 32,6 C 44 % 1009,0 hPa 0,0 l/m 3,8 km/h (1 Bft) SO 135 0 min 0,000 mm 128 W/m 18,7 C 32,6 C 16,1 km/h (3 Bft) 97 %
19.07.2017 15:30 32,8 C 32,6 C 32,8 C 43 % 1008,7 hPa 0,0 l/m 2,7 km/h (1 Bft) W-SW 254 0 min 0,000 mm 114 W/m 18,5 C 32,8 C 17,7 km/h (3 Bft) 97 %
19.07.2017 15:40 33,1 C 32,8 C 33,1 C 42 % 1008,8 hPa 0,0 l/m 3,8 km/h (1 Bft) S 184 0 min 0,000 mm 109 W/m 18,4 C 33,1 C 11,3 km/h (2 Bft) 97 %
19.07.2017 15:50 33,3 C 33,1 C 33,3 C 42 % 1008,7 hPa 0,0 l/m 2,3 km/h (1 Bft) SW 225 0 min 0,000 mm 109 W/m 18,6 C 33,3 C 8,0 km/h (2 Bft) 97 %
19.07.2017 16:00 33,6 C 33,3 C 33,6 C 41 % 1008,6 hPa 0,0 l/m 2,6 km/h (1 Bft) W-NW 298 10 min 0,229 mm 258 W/m 18,5 C 33,6 C 9,7 km/h (2 Bft) 98 %
19.07.2017 16:10 33,8 C 33,6 C 33,8 C 41 % 1008,5 hPa 0,0 l/m 1,3 km/h (1 Bft) SO 144 10 min 0,000 mm 573 W/m 18,7 C 33,8 C 8,0 km/h (2 Bft) 97 %
19.07.2017 16:20 33,7 C 33,7 C 33,8 C 40 % 1008,5 hPa 0,0 l/m 2,8 km/h (1 Bft) S 172 10 min 0,000 mm 633 W/m 18,2 C 33,7 C 14,5 km/h (3 Bft) 98 %
19.07.2017 16:30 33,7 C 33,6 C 33,7 C 38 % 1008,2 hPa 0,0 l/m 0,9 km/h (0 Bft) SO 129 10 min 0,000 mm 564 W/m 17,4 C 33,7 C 6,4 km/h (2 Bft) 97 %
19.07.2017 16:40 33,4 C 33,4 C 33,7 C 41 % 1008,0 hPa 0,0 l/m 0,4 km/h (0 Bft) S 187 10 min 0,000 mm 295 W/m 18,3 C 33,4 C 6,4 km/h (2 Bft) 97 %
19.07.2017 16:50 33,6 C 33,4 C 33,6 C 40 % 1007,8 hPa 0,0 l/m 1,1 km/h (1 Bft) SW 232 0 min 0,000 mm 113 W/m 18,1 C 33,6 C 9,7 km/h (2 Bft) 98 %
19.07.2017 17:00 33,7 C 33,6 C 33,7 C 40 % 1007,6 hPa 0,0 l/m 3,6 km/h (1 Bft) W-SW 248 0 min 0,279 mm 118 W/m 18,2 C 33,7 C 11,3 km/h (2 Bft) 97 %
19.07.2017 17:10 33,8 C 33,7 C 33,8 C 39 % 1007,6 hPa 0,0 l/m 1,7 km/h (1 Bft) N-NW 339 0 min 0,000 mm 139 W/m 17,9 C 33,8 C 9,7 km/h (2 Bft) 98 %
19.07.2017 17:20 33,6 C 33,6 C 33,8 C 40 % 1007,6 hPa 0,0 l/m 0,1 km/h (0 Bft) O-NO 71 0 min 0,000 mm 120 W/m 18,1 C 33,6 C 4,8 km/h (1 Bft) 97 %
19.07.2017 17:30 33,3 C 33,3 C 33,6 C 39 % 1007,6 hPa 0,0 l/m 1,5 km/h (1 Bft) S-SW 205 0 min 0,000 mm 137 W/m 17,4 C 33,3 C 11,3 km/h (2 Bft) 97 %
19.07.2017 17:40 33,1 C 33,1 C 33,3 C 41 % 1007,4 hPa 0,0 l/m 0,0 km/h (0 Bft) S-SW 198 0 min 0,000 mm 139 W/m 18,0 C 33,1 C 1,6 km/h (1 Bft) 97 %
19.07.2017 17:50 32,8 C 32,8 C 33,1 C 42 % 1007,3 hPa 0,0 l/m 0,0 km/h (0 Bft) SO 129 10 min 0,000 mm 197 W/m 18,2 C 32,8 C 0,0 km/h (0 Bft) 97 %
19.07.2017 18:00 32,9 C 32,8 C 32,9 C 44 % 1007,3 hPa 0,0 l/m 0,1 km/h (0 Bft) SO 129 10 min 0,127 mm 195 W/m 19,0 C 32,9 C 4,8 km/h (1 Bft) 98 %
19.07.2017 18:10 33,3 C 32,9 C 33,3 C 43 % 1007,2 hPa 0,0 l/m 3,7 km/h (1 Bft) W-SW 238 10 min 0,000 mm 236 W/m 19,0 C 33,3 C 16,1 km/h (3 Bft) 100 %
19.07.2017 18:20 33,6 C 33,3 C 33,6 C 43 % 1007,2 hPa 0,0 l/m 7,6 km/h (2 Bft) W 261 10 min 0,000 mm 197 W/m 19,3 C 33,6 C 17,7 km/h (3 Bft) 100 %
19.07.2017 18:30 33,5 C 33,5 C 33,6 C 44 % 1007,3 hPa 0,0 l/m 8,5 km/h (2 Bft) NW 305 10 min 0,000 mm 181 W/m 19,5 C 33,5 C 20,9 km/h (4 Bft) 99 %
19.07.2017 18:40 33,3 C 33,3 C 33,5 C 43 % 1007,5 hPa 0,0 l/m 7,9 km/h (2 Bft) SW 228 10 min 0,000 mm 192 W/m 19,0 C 33,3 C 19,3 km/h (3 Bft) 99 %
19.07.2017 18:50 33,0 C 33,0 C 33,3 C 45 % 1007,4 hPa 0,0 l/m 5,7 km/h (1 Bft) SW 234 0 min 0,000 mm 114 W/m 19,4 C 33,0 C 17,7 km/h (3 Bft) 99 %
19.07.2017 19:00 32,6 C 32,6 C 33,1 C 44 % 1007,5 hPa 0,0 l/m 6,2 km/h (2 Bft) W-SW 252 0 min 0,203 mm 95 W/m 18,7 C 32,6 C 19,3 km/h (3 Bft) 100 %
19.07.2017 19:10 32,1 C 32,1 C 32,6 C 45 % 1007,5 hPa 0,0 l/m 5,6 km/h (1 Bft) W 266 0 min 0,000 mm 84 W/m 18,6 C 32,1 C 16,1 km/h (3 Bft) 99 %
19.07.2017 19:20 31,7 C 31,7 C 32,1 C 46 % 1007,6 hPa 0,0 l/m 2,6 km/h (1 Bft) W-NW 294 0 min 0,000 mm 53 W/m 18,6 C 31,7 C 14,5 km/h (3 Bft) 100 %
19.07.2017 19:30 31,2 C 31,2 C 31,7 C 46 % 1007,5 hPa 0,0 l/m 0,9 km/h (0 Bft) W 272 0 min 0,000 mm 62 W/m 18,2 C 31,2 C 9,7 km/h (2 Bft) 100 %
19.07.2017 19:40 30,8 C 30,8 C 31,2 C 48 % 1007,6 hPa 0,0 l/m 0,3 km/h (0 Bft) W 266 0 min 0,000 mm 67 W/m 18,5 C 30,8 C 8,0 km/h (2 Bft) 100 %
19.07.2017 19:50 30,5 C 30,5 C 30,8 C 49 % 1007,7 hPa 0,0 l/m 0,0 km/h (0 Bft) W-NW 286 0 min 0,000 mm 60 W/m 18,6 C 30,5 C 1,6 km/h (1 Bft) 100 %
19.07.2017 20:00 30,2 C 30,2 C 30,5 C 50 % 1007,5 hPa 0,0 l/m 0,0 km/h (0 Bft) W-NW 286 0 min 0,000 mm 56 W/m 18,6 C 30,2 C 0,0 km/h (0 Bft) 100 %
19.07.2017 20:10 29,8 C 29,8 C 30,2 C 51 % 1007,5 hPa 0,0 l/m 0,0 km/h (0 Bft) W-NW 286 0 min 0,076 mm 51 W/m 18,5 C 29,8 C 1,6 km/h (1 Bft) 100 %
19.07.2017 20:20 29,6 C 29,6 C 29,8 C 52 % 1007,7 hPa 0,0 l/m 0,0 km/h (0 Bft) W-NW 286 0 min 0,001 mm 37 W/m 18,7 C 29,6 C 1,6 km/h (1 Bft) 100 %
19.07.2017 20:30 29,3 C 29,3 C 29,6 C 53 % 1007,7 hPa 0,0 l/m 0,0 km/h (0 Bft) W-NW 286 0 min 0,000 mm 37 W/m 18,7 C 29,3 C 0,0 km/h (0 Bft) 100 %
19.07.2017 20:40 29,0 C 29,0 C 29,3 C 54 % 1007,6 hPa 0,0 l/m 0,0 km/h (0 Bft) W-NW 286 0 min 0,000 mm 32 W/m 18,7 C 29,0 C 0,0 km/h (0 Bft) 100 %
19.07.2017 20:50 28,7 C 28,7 C 29,0 C 53 % 1007,5 hPa 0,0 l/m 0,0 km/h (0 Bft) W-NW 286 0 min 0,000 mm 25 W/m 18,2 C 28,7 C 0,0 km/h (0 Bft) 100 %
19.07.2017 21:00 28,4 C 28,4 C 28,7 C 55 % 1007,6 hPa 0,0 l/m 0,0 km/h (0 Bft) W-NW 286 0 min 0,000 mm 21 W/m 18,5 C 28,4 C 0,0 km/h (0 Bft) 100 %
19.07.2017 21:10 28,3 C 28,3 C 28,4 C 55 % 1007,7 hPa 0,0 l/m 0,0 km/h (0 Bft) N 0 0 min 0,000 mm 21 W/m 18,4 C 28,3 C 0,0 km/h (0 Bft) 98 %
19.07.2017 21:20 28,1 C 28,1 C 28,3 C 55 % 1007,7 hPa 0,0 l/m 0,0 km/h (0 Bft) W-NW 292 0 min 0,000 mm 7 W/m 18,2 C 28,1 C 1,6 km/h (1 Bft) 97 %
19.07.2017 21:30 27,9 C 27,9 C 28,1 C 56 % 1007,7 hPa 0,0 l/m 0,0 km/h (0 Bft) N 0 0 min 0,000 mm 0 W/m 18,3 C 27,9 C 0,0 km/h (0 Bft) 98 %
19.07.2017 21:40 27,4 C 27,4 C 27,8 C 57 % 1008,0 hPa 0,0 l/m 0,0 km/h (0 Bft) W-NW 292 0 min 0,000 mm 0 W/m 18,1 C 27,4 C 1,6 km/h (1 Bft) 97 %
19.07.2017 21:50 26,8 C 26,8 C 27,4 C 61 % 1008,1 hPa 0,0 l/m 0,0 km/h (0 Bft) N 0 0 min 0,000 mm 0 W/m 18,6 C 26,8 C 0,0 km/h (0 Bft) 98 %
19.07.2017 22:00 26,3 C 26,3 C 26,8 C 62 % 1008,0 hPa 0,0 l/m 0,0 km/h (0 Bft) N 0 0 min 0,025 mm 0 W/m 18,4 C 26,3 C 0,0 km/h (0 Bft) 97 %
19.07.2017 22:10 25,8 C 25,8 C 26,3 C 63 % 1007,9 hPa 0,0 l/m 0,0 km/h (0 Bft) N 0 0 min 0,000 mm 0 W/m 18,2 C 25,8 C 0,0 km/h (0 Bft) 97 %
19.07.2017 22:20 25,4 C 25,4 C 25,8 C 65 % 1007,9 hPa 0,0 l/m 0,0 km/h (0 Bft) N 0 0 min 0,000 mm 0 W/m 18,3 C 25,4 C 0,0 km/h (0 Bft) 98 %
19.07.2017 22:30 25,0 C 25,0 C 25,4 C 66 % 1008,0 hPa 0,0 l/m 0,0 km/h (0 Bft) N 0 0 min 0,000 mm 0 W/m 18,2 C 25,0 C 0,0 km/h (0 Bft) 97 %
19.07.2017 22:40 24,6 C 24,6 C 25,0 C 66 % 1008,0 hPa 0,0 l/m 0,0 km/h (0 Bft) N 0 0 min 0,000 mm 0 W/m 17,8 C 24,6 C 0,0 km/h (0 Bft) 98 %
19.07.2017 22:50 24,2 C 24,2 C 24,6 C 67 % 1008,0 hPa 0,0 l/m 0,0 km/h (0 Bft) N 0 0 min 0,000 mm 0 W/m 17,7 C 24,2 C 0,0 km/h (0 Bft) 97 %
19.07.2017 23:00 23,9 C 23,9 C 24,2 C 68 % 1008,1 hPa 0,0 l/m 0,0 km/h (0 Bft) N 0 0 min 0,025 mm 0 W/m 17,6 C 23,9 C 0,0 km/h (0 Bft) 98 %
19.07.2017 23:10 23,7 C 23,7 C 23,9 C 70 % 1008,1 hPa 0,2 l/m 0,0 km/h (0 Bft) N 0 0 min 0,000 mm 0 W/m 17,9 C 23,7 C 0,0 km/h (0 Bft) 97 %
19.07.2017 23:20 22,9 C 22,9 C 23,7 C 74 % 1009,0 hPa 0,0 l/m 9,7 km/h (2 Bft) SO 135 0 min 0,000 mm 0 W/m 18,0 C 21,9 C 33,8 km/h (5 Bft) 97 %
19.07.2017 23:30 22,7 C 22,7 C 22,9 C 76 % 1009,2 hPa 0,0 l/m 11,3 km/h (2 Bft) S-SO 157 0 min 0,000 mm 0 W/m 18,2 C 21,3 C 33,8 km/h (5 Bft) 98 %
19.07.2017 23:40 21,7 C 21,7 C 22,7 C 77 % 1009,6 hPa 0,0 l/m 12,9 km/h (3 Bft) SO 135 0 min 0,000 mm 0 W/m 17,5 C 19,8 C 27,4 km/h (4 Bft) 97 %
19.07.2017 23:50 20,3 C 20,3 C 21,7 C 84 % 1010,0 hPa 1,0 l/m 17,7 km/h (3 Bft) S-SO 157 0 min 0,000 mm 0 W/m 17,5 C 17,0 C 33,8 km/h (5 Bft) 98 %
_ Min-Zeit 06:20 06:20 06:30 16:30 18:10 - 00:00 - - - - - 06:20 06:20 02:10 11:30
Minimum _ 16,4 C 16,4 C 16,4 C 38 % 1007,2 hPa - 0,0 km/h (0 Bft) - - - - - 14,4 C 16,4 C 0,0 km/h (0 Bft) 91 %
_ Max-Zeit 16:10 16:20 16:10 06:30 00:00 23:50 23:50 - - 08:20 14:00 14:00 18:30 16:10 23:20 00:00
Maximum _ 33,8 C 33,7 C 33,8 C 89 % 1012,4 hPa 1,0 l/m 17,7 km/h
S-SO (3 Bft)
- - 10 min 0,610 mm 867 W/m 19,5 C 33,8 C 33,8 km/h
O-SO (5 Bft)
100 %
Durchschnitt _ 25,5 C 25,3 C 25,6 C 64 % 1010,2 hPa #1,2 l/m 1,3 km/h (1 Bft) S - #8:50 h #4,343 mm 383 W/m 17,3 C 25,4 C 6,1 km/h (2 Bft) 99 %
PRIVATE WETTERSTATION BILLIGHEIM-ALLFELD - www.neckar-odenwald-wetter.de - Holger Sonntag